Time;durP1;ratioP1;P1;durP2;ratioP2;P2;SDS_P1;SDS_P2;PMS_P1;PMS_P2;Temp;Humidity;BMP_temperature;BMP_pressure;BME280_temperature;BME280_humidity;BME280_pressure;Samples;Min_cycle;Max_cycle;Signal;HPM_P1;HPM_P2
2023/07/14 00:01:48;;;;;;;4.97;1.80;;;18.90;99.90;;;;;;7285183;19;20365;-81
2023/07/14 00:04:25;;;;;;;6.10;2.10;;;18.90;99.90;;;;;;7285232;19;20225;-81
2023/07/14 00:06:51;;;;;;;6.17;1.83;;;18.90;99.90;;;;;;7287272;19;20197;-81
2023/07/14 00:09:26;;;;;;;6.23;2.10;;;18.90;99.90;;;;;;7285872;19;20660;-81
2023/07/14 00:11:52;;;;;;;8.30;2.10;;;18.90;99.90;;;;;;7285143;19;20554;-82
2023/07/14 00:14:18;;;;;;;8.33;2.10;;;18.90;99.90;;;;;;7284365;19;20190;-82
2023/07/14 00:16:44;;;;;;;7.37;2.20;;;18.80;99.90;;;;;;7285468;19;20184;-81
2023/07/14 00:19:14;;;;;;;5.97;1.77;;;18.70;99.90;;;;;;7285132;19;20203;-80
2023/07/14 00:21:40;;;;;;;7.20;2.27;;;18.70;99.90;;;;;;7288841;19;20624;-76
2023/07/14 00:24:14;;;;;;;8.03;2.30;;;18.60;99.90;;;;;;7305597;19;20715;-76
2023/07/14 00:26:41;;;;;;;7.67;2.33;;;18.60;99.90;;;;;;7261419;19;20184;-76
2023/07/14 00:29:25;;;;;;;7.27;2.10;;;18.60;99.90;;;;;;7304256;19;20224;-76
2023/07/14 00:31:51;;;;;;;5.70;2.13;;;18.60;99.90;;;;;;7180925;19;2004802;-76
2023/07/14 00:34:17;;;;;;;5.33;2.00;;;18.50;99.90;;;;;;7282766;19;20194;-77
2023/07/14 00:36:42;;;;;;;5.17;1.80;;;18.50;99.90;;;;;;7282445;19;20193;-76
2023/07/14 00:39:08;;;;;;;6.07;2.00;;;18.40;99.90;;;;;;7303776;19;20248;-77
2023/07/14 00:41:34;;;;;;;7.80;2.10;;;18.40;99.90;;;;;;7288164;19;20198;-77
2023/07/14 00:43:59;;;;;;;8.13;2.10;;;18.40;99.90;;;;;;7282547;19;20180;-76
2023/07/14 00:46:30;;;;;;;6.07;1.97;;;18.40;99.90;;;;;;7282229;19;20195;-76
2023/07/14 00:49:04;;;;;;;6.73;2.30;;;18.40;99.90;;;;;;7282908;19;20231;-77
2023/07/14 00:51:34;;;;;;;7.17;2.40;;;18.40;99.90;;;;;;7282665;19;20199;-77
2023/07/14 00:54:00;;;;;;;9.87;2.53;;;18.30;99.90;;;;;;7282324;19;20886;-76
2023/07/14 00:56:37;;;;;;;6.63;2.23;;;18.30;99.90;;;;;;7283024;19;20204;-76
2023/07/14 00:59:14;;;;;;;7.23;2.30;;;18.30;99.90;;;;;;7283082;19;20212;-77
2023/07/14 01:02:19;;;;;;;5.90;2.00;;;18.20;99.90;;;;;;7259933;19;20195;-77
2023/07/14 01:05:00;;;;;;;7.97;2.50;;;18.20;99.90;;;;;;7179111;19;2004513;-76
2023/07/14 01:07:37;;;;;;;8.37;2.30;;;18.20;99.90;;;;;;7281915;19;20196;-76
2023/07/14 01:10:05;;;;;;;5.67;2.13;;;18.20;99.90;;;;;;7282624;19;20211;-76
2023/07/14 01:12:33;;;;;;;6.63;2.40;;;18.20;99.90;;;;;;7281918;19;20182;-77
2023/07/14 01:15:01;;;;;;;8.60;2.97;;;18.10;99.90;;;;;;7282462;19;20189;-77
2023/07/14 01:17:27;;;;;;;7.67;2.57;;;18.20;99.90;;;;;;7281049;19;20189;-76
2023/07/14 01:19:54;;;;;;;8.90;2.43;;;18.10;99.90;;;;;;7282239;19;20213;-76
2023/07/14 01:22:26;;;;;;;5.97;2.17;;;18.10;99.90;;;;;;7281844;19;20185;-76
2023/07/14 01:25:21;;;;;;;7.20;2.50;;;18.00;99.90;;;;;;7282804;19;20229;-77
2023/07/14 01:27:47;;;;;;;6.77;2.40;;;18.00;99.90;;;;;;7179069;19;2004412;-77
2023/07/14 01:30:15;;;;;;;5.97;2.40;;;18.20;99.90;;;;;;7281744;19;20187;-77
2023/07/14 01:32:45;;;;;;;8.60;2.77;;;18.30;99.90;;;;;;7281546;19;20187;-77
2023/07/14 01:35:13;;;;;;;8.17;2.67;;;18.40;99.90;;;;;;7280059;19;20687;-78
2023/07/14 01:37:39;;;;;;;8.47;2.70;;;18.40;99.90;;;;;;7301194;19;20249;-77
2023/07/14 01:40:15;;;;;;;7.90;2.47;;;18.50;99.90;;;;;;7303051;19;20185;-76
2023/07/14 01:42:49;;;;;;;6.43;2.37;;;18.40;99.90;;;;;;7260567;19;20212;-81
2023/07/14 01:45:17;;;;;;;8.27;2.87;;;18.40;99.90;;;;;;7283023;19;20268;-82
2023/07/14 01:47:47;;;;;;;10.57;3.10;;;18.30;99.90;;;;;;7282772;19;20216;-81
2023/07/14 01:50:26;;;;;;;8.93;2.97;;;18.30;99.90;;;;;;7283119;19;20605;-81
2023/07/14 01:52:55;;;;;;;10.80;2.77;;;18.20;99.90;;;;;;7282638;19;20202;-82
2023/07/14 01:55:23;;;;;;;7.87;2.50;;;18.20;99.90;;;;;;7281826;19;20196;-82
2023/07/14 01:57:54;;;;;;;11.33;3.13;;;18.10;99.90;;;;;;7282927;19;20561;-81
2023/07/14 02:00:22;;;;;;;11.90;3.23;;;18.10;99.90;;;;;;7281244;19;20189;-81
2023/07/14 02:02:50;;;;;;;7.20;2.80;;;18.10;99.90;;;;;;7280650;19;20197;-81
2023/07/14 02:05:18;;;;;;;12.63;3.97;;;18.10;99.90;;;;;;7282110;19;20197;-81
2023/07/14 02:07:46;;;;;;;11.77;3.00;;;18.20;99.90;;;;;;7283093;19;20208;-81
2023/07/14 02:10:16;;;;;;;7.83;2.90;;;18.20;99.90;;;;;;7281767;19;20203;-81
2023/07/14 02:12:46;;;;;;;10.37;3.27;;;18.20;99.90;;;;;;7282862;19;20197;-81
2023/07/14 02:15:19;;;;;;;8.50;2.73;;;18.10;99.90;;;;;;7280600;19;20196;-82
2023/07/14 02:17:47;;;;;;;10.03;3.17;;;18.00;99.90;;;;;;7281808;19;20542;-82
2023/07/14 02:20:26;;;;;;;8.23;3.20;;;17.90;99.90;;;;;;7280979;19;20204;-80
2023/07/14 02:22:54;;;;;;;6.67;3.00;;;17.80;99.90;;;;;;7280787;19;20261;-81
2023/07/14 02:25:23;;;;;;;11.37;3.40;;;17.80;99.90;;;;;;7281173;19;20188;-80
2023/07/14 02:27:49;;;;;;;9.73;3.20;;;17.70;99.90;;;;;;7281979;19;20189;-81
2023/07/14 02:30:20;;;;;;;9.63;3.10;;;17.60;99.90;;;;;;7281262;19;20212;-80
2023/07/14 02:32:55;;;;;;;8.13;2.90;;;17.50;99.90;;;;;;7282894;19;20196;-82
2023/07/14 02:35:36;;;;;;;9.03;3.30;;;17.60;99.90;;;;;;7280927;19;20567;-81
2023/07/14 02:38:12;;;;;;;13.03;3.73;;;17.40;99.90;;;;;;7279993;19;20652;-81
2023/07/14 02:40:50;;;;;;;10.17;3.37;;;17.40;99.90;;;;;;7281221;19;20183;-80
2023/07/14 02:43:18;;;;;;;14.13;3.70;;;17.40;99.90;;;;;;7178612;19;2004451;-81
2023/07/14 02:45:55;;;;;;;10.17;3.23;;;17.30;99.90;;;;;;7280930;19;20623;-82
2023/07/14 02:48:46;;;;;;;10.80;3.10;;;17.20;99.90;;;;;;7282081;19;20661;-81
2023/07/14 02:51:12;;;;;;;9.70;3.57;;;17.10;99.90;;;;;;7258781;19;20188;-80
2023/07/14 02:53:37;;;;;;;10.23;3.40;;;17.10;99.90;;;;;;7302539;19;20185;-81
2023/07/14 02:56:04;;;;;;;9.67;3.17;;;17.10;99.90;;;;;;7279892;19;20188;-82
2023/07/14 02:58:31;;;;;;;13.47;3.13;;;17.10;99.90;;;;;;7279911;19;20177;-81
2023/07/14 03:00:58;;;;;;;9.30;3.27;;;17.00;99.90;;;;;;7279279;19;20545;-82
2023/07/14 03:03:23;;;;;;;12.00;3.47;;;17.00;99.90;;;;;;7280603;19;20248;-82
2023/07/14 03:05:51;;;;;;;10.43;3.43;;;16.90;99.90;;;;;;7270926;19;20280;-80
2023/07/14 03:08:18;;;;;;;8.70;3.30;;;16.80;99.90;;;;;;7277517;19;20193;-80
2023/07/14 03:10:48;;;;;;;12.53;3.80;;;16.80;99.90;;;;;;7279989;19;20193;-80
2023/07/14 03:13:15;;;;;;;10.50;3.87;;;16.70;99.90;;;;;;7280625;19;20196;-80
2023/07/14 03:15:43;;;;;;;11.47;4.10;;;16.70;99.90;;;;;;7281221;19;20616;-80
2023/07/14 03:18:08;;;;;;;13.63;4.23;;;16.60;99.90;;;;;;7302319;19;20196;-77
2023/07/14 03:20:34;;;;;;;12.47;4.13;;;16.50;99.90;;;;;;7291601;19;20535;-80
2023/07/14 03:23:00;;;;;;;12.53;4.13;;;16.50;99.90;;;;;;7289823;19;20268;-82
2023/07/14 03:25:26;;;;;;;14.07;4.40;;;16.40;99.90;;;;;;7289397;19;20682;-81
2023/07/14 03:27:52;;;;;;;11.20;3.60;;;16.40;99.90;;;;;;7286323;19;20194;-82
2023/07/14 03:30:18;;;;;;;10.20;3.83;;;16.40;99.90;;;;;;7294087;19;20210;-81
2023/07/14 03:32:44;;;;;;;12.27;4.10;;;16.30;99.90;;;;;;7287721;19;20294;-81
2023/07/14 03:35:09;;;;;;;9.00;3.57;;;16.30;99.90;;;;;;7290351;19;20196;-81
2023/07/14 03:37:35;;;;;;;10.27;3.70;;;16.30;99.90;;;;;;7299316;19;20648;-82
2023/07/14 03:40:01;;;;;;;9.57;3.63;;;16.40;99.90;;;;;;7277828;19;20197;-81
2023/07/14 03:42:27;;;;;;;8.90;3.23;;;16.40;99.90;;;;;;7275925;19;20185;-81
2023/07/14 03:44:52;;;;;;;14.57;3.70;;;16.50;99.90;;;;;;7279312;19;20220;-81
2023/07/14 03:47:18;;;;;;;10.87;3.40;;;16.50;99.90;;;;;;7275567;19;20185;-80
2023/07/14 03:49:44;;;;;;;10.97;3.50;;;16.60;99.90;;;;;;7276653;19;20189;-80
2023/07/14 03:52:09;;;;;;;10.33;3.63;;;16.60;99.90;;;;;;7283725;19;20203;-76
2023/07/14 03:54:35;;;;;;;10.53;3.50;;;16.50;99.90;;;;;;7293270;19;20200;-76
2023/07/14 03:57:01;;;;;;;8.70;3.27;;;16.40;99.90;;;;;;7273524;19;20225;-77
2023/07/14 03:59:27;;;;;;;9.83;3.43;;;16.40;99.90;;;;;;7271847;19;20551;-76
2023/07/14 04:01:54;;;;;;;10.20;3.40;;;16.40;99.90;;;;;;7271558;19;20197;-77
2023/07/14 04:04:20;;;;;;;12.07;3.70;;;16.50;99.90;;;;;;7273546;19;20208;-76
2023/07/14 04:06:46;;;;;;;12.77;3.50;;;16.50;99.90;;;;;;7270942;19;20538;-76
2023/07/14 04:09:12;;;;;;;9.87;3.80;;;16.40;99.90;;;;;;7274602;19;20198;-77
2023/07/14 04:11:38;;;;;;;13.00;3.53;;;16.40;99.90;;;;;;7298870;19;20194;-77
2023/07/14 04:14:05;;;;;;;8.37;3.43;;;16.40;99.90;;;;;;7275818;19;20193;-77
2023/07/14 04:16:31;;;;;;;10.53;3.23;;;16.40;99.90;;;;;;7275396;19;20189;-77
2023/07/14 04:18:57;;;;;;;15.50;3.77;;;16.40;99.90;;;;;;7275978;19;20204;-76
2023/07/14 04:21:27;;;;;;;12.93;3.93;;;16.50;99.90;;;;;;7275747;19;20800;-76
2023/07/14 04:23:54;;;;;;;8.60;3.73;;;16.60;99.90;;;;;;7276068;19;20193;-76
2023/07/14 04:26:23;;;;;;;12.73;4.40;;;16.80;99.90;;;;;;7275200;19;20738;-77
2023/07/14 04:28:48;;;;;;;13.80;4.17;;;17.00;99.90;;;;;;7276576;19;20206;-76
2023/07/14 04:31:15;;;;;;;10.97;3.67;;;17.20;99.90;;;;;;7277442;19;20718;-77
2023/07/14 04:33:45;;;;;;;12.53;3.63;;;17.30;99.90;;;;;;7276019;19;20193;-76
2023/07/14 04:36:11;;;;;;;13.17;3.60;;;17.30;99.90;;;;;;7274891;19;20307;-76
2023/07/14 04:38:40;;;;;;;12.57;3.87;;;17.30;99.90;;;;;;7299124;19;20189;-77
2023/07/14 04:41:05;;;;;;;9.80;3.97;;;17.40;99.90;;;;;;7282231;19;20187;-76
2023/07/14 04:43:33;;;;;;;10.27;4.00;;;17.80;99.90;;;;;;7284522;19;20217;-77
2023/07/14 04:45:58;;;;;;;10.93;3.70;;;18.70;99.90;;;;;;7283579;19;20201;-77
2023/07/14 04:48:24;;;;;;;11.33;3.90;;;19.20;99.90;;;;;;7282883;19;20572;-77
2023/07/14 04:50:51;;;;;;;11.00;4.23;;;19.40;99.90;;;;;;7280504;19;20824;-77
2023/07/14 04:53:19;;;;;;;12.93;3.67;;;20.00;99.90;;;;;;7284349;19;20191;-77
2023/07/14 04:55:46;;;;;;;15.40;3.47;;;21.20;99.90;;;;;;7283275;19;20206;-78
2023/07/14 04:58:14;;;;;;;9.20;3.33;;;21.80;99.90;;;;;;7282706;19;20192;-77
2023/07/14 05:00:44;;;;;;;11.40;2.73;;;22.40;99.90;;;;;;7294548;19;20184;-76
2023/07/14 05:03:09;;;;;;;9.83;2.93;;;23.30;99.90;;;;;;7294192;19;20549;-76
2023/07/14 05:05:35;;;;;;;9.93;3.13;;;24.00;99.90;;;;;;7301143;19;20200;-77
2023/07/14 05:08:01;;;;;;;11.07;3.10;;;24.30;99.90;;;;;;7283484;19;20193;-77
2023/07/14 05:10:29;;;;;;;11.33;3.07;;;24.40;99.90;;;;;;7282434;19;20197;-76
2023/07/14 05:12:56;;;;;;;8.10;2.60;;;24.90;99.90;;;;;;7282321;19;20189;-77
2023/07/14 05:15:24;;;;;;;9.43;3.00;;;24.30;99.90;;;;;;7281726;19;20189;-77
2023/07/14 05:17:50;;;;;;;9.90;2.83;;;23.60;99.90;;;;;;7279630;19;20189;-75
2023/07/14 05:20:18;;;;;;;8.40;3.17;;;22.60;99.90;;;;;;7282222;19;20193;-76
2023/07/14 05:22:49;;;;;;;11.47;3.40;;;22.00;99.90;;;;;;7281495;19;20208;-77
2023/07/14 05:25:16;;;;;;;10.87;3.30;;;21.40;99.90;;;;;;7280741;19;20559;-77
2023/07/14 05:27:43;;;;;;;9.13;2.77;;;21.10;99.90;;;;;;7282295;19;20210;-77
2023/07/14 05:30:14;;;;;;;13.80;3.67;;;21.00;99.90;;;;;;7296303;19;20196;-77
2023/07/14 05:32:42;;;;;;;9.00;3.40;;;21.00;99.90;;;;;;7293055;19;20633;-77
2023/07/14 05:35:08;;;;;;;10.83;3.20;;;21.10;99.90;;;;;;7303779;19;20256;-76
2023/07/14 05:37:34;;;;;;;8.20;2.83;;;21.10;99.90;;;;;;7283409;19;20188;-77
2023/07/14 05:39:59;;;;;;;7.83;2.77;;;21.00;99.90;;;;;;7281990;19;20551;-76
2023/07/14 05:42:25;;;;;;;9.80;2.90;;;20.90;99.90;;;;;;7280830;19;20652;-76
2023/07/14 05:44:51;;;;;;;8.13;2.93;;;20.70;99.90;;;;;;7282158;19;20195;-76
2023/07/14 05:47:16;;;;;;;8.93;2.70;;;20.50;99.90;;;;;;7281966;19;20195;-76
2023/07/14 05:49:42;;;;;;;7.17;2.77;;;20.40;99.90;;;;;;7279593;19;20194;-76
2023/07/14 05:52:10;;;;;;;8.77;3.53;;;20.50;99.90;;;;;;7303575;19;20281;-76
2023/07/14 05:54:36;;;;;;;12.30;3.10;;;20.70;99.90;;;;;;7280432;19;20192;-77
2023/07/14 05:57:02;;;;;;;10.50;3.63;;;20.90;99.90;;;;;;7279662;19;20607;-76
2023/07/14 05:59:28;;;;;;;9.20;3.17;;;21.10;99.90;;;;;;7280960;19;20248;-76
2023/07/14 06:01:53;;;;;;;9.37;3.40;;;21.30;99.90;;;;;;7280929;19;20521;-77
2023/07/14 06:04:19;;;;;;;11.13;3.10;;;21.70;99.90;;;;;;7281107;19;20191;-78
2023/07/14 06:06:45;;;;;;;10.33;3.50;;;21.60;99.90;;;;;;7281960;19;20197;-77
2023/07/14 06:09:13;;;;;;;8.53;2.90;;;21.40;99.90;;;;;;7281152;19;20185;-76
2023/07/14 06:11:40;;;;;;;8.43;3.33;;;21.10;99.90;;;;;;7299689;19;20192;-77
2023/07/14 06:14:05;;;;;;;8.93;3.13;;;21.60;99.90;;;;;;7300740;19;20288;-77
2023/07/14 06:16:31;;;;;;;8.60;2.87;;;22.10;99.90;;;;;;7281345;19;20219;-76
2023/07/14 06:18:57;;;;;;;10.83;3.07;;;22.00;99.90;;;;;;7281125;19;20188;-76
2023/07/14 06:21:23;;;;;;;8.87;2.83;;;22.20;99.90;;;;;;7281303;19;20729;-76
2023/07/14 06:23:49;;;;;;;10.23;3.10;;;21.90;99.90;;;;;;7280693;19;20657;-76
2023/07/14 06:26:15;;;;;;;8.67;2.70;;;21.70;99.90;;;;;;7278990;19;20298;-77
2023/07/14 06:28:42;;;;;;;7.70;2.80;;;21.60;99.90;;;;;;7285207;19;20197;-77
2023/07/14 06:31:11;;;;;;;7.77;3.00;;;21.30;99.90;;;;;;7302653;19;20200;-76
2023/07/14 06:33:36;;;;;;;9.87;2.77;;;21.10;99.90;;;;;;7281600;19;20189;-77
2023/07/14 06:36:03;;;;;;;11.27;3.00;;;21.20;99.90;;;;;;7281287;19;20199;-83
2023/07/14 06:38:29;;;;;;;10.23;2.73;;;21.40;99.90;;;;;;7283362;19;20177;-83
2023/07/14 06:41:03;;;;;;;9.73;2.70;;;21.60;99.90;;;;;;7282232;19;20269;-82
2023/07/14 06:43:30;;;;;;;7.93;2.37;;;21.40;99.90;;;;;;7280429;19;20228;-81
2023/07/14 06:45:56;;;;;;;7.67;2.27;;;21.40;99.90;;;;;;7282940;19;20542;-82
2023/07/14 06:48:22;;;;;;;11.27;2.73;;;21.70;99.90;;;;;;7281655;19;20217;-81
2023/07/14 06:50:48;;;;;;;8.90;2.30;;;21.70;99.90;;;;;;7282821;19;20193;-81
2023/07/14 06:53:14;;;;;;;11.33;2.50;;;21.70;99.90;;;;;;7282664;19;20703;-80
2023/07/14 06:55:40;;;;;;;6.73;2.50;;;21.40;99.90;;;;;;7294426;19;20202;-81
2023/07/14 06:58:06;;;;;;;9.63;2.90;;;21.50;99.90;;;;;;7301619;19;20252;-81
2023/07/14 07:00:33;;;;;;;9.13;2.53;;;21.80;99.90;;;;;;7280440;19;20204;-81
2023/07/14 07:03:00;;;;;;;10.00;3.03;;;22.20;99.90;;;;;;7278957;19;20336;-81
2023/07/14 07:05:26;;;;;;;7.77;2.20;;;22.60;99.90;;;;;;7280811;19;20204;-81
2023/07/14 07:07:53;;;;;;;5.00;2.03;;;22.80;99.90;;;;;;7281669;19;20223;-82
2023/07/14 07:10:19;;;;;;;7.00;2.40;;;22.90;99.90;;;;;;7280914;19;20199;-81
2023/07/14 07:12:45;;;;;;;9.33;2.10;;;23.10;99.90;;;;;;7281437;19;20684;-81
2023/07/14 07:15:10;;;;;;;7.73;2.30;;;23.30;99.90;;;;;;7286505;19;20185;-80
2023/07/14 07:17:38;;;;;;;7.07;2.23;;;24.00;99.90;;;;;;7301888;19;20180;-80
2023/07/14 07:20:06;;;;;;;5.32;2.28;;;24.60;99.90;;;;;;7281783;19;20444;-81
2023/07/14 07:22:33;;;;;;;9.07;2.47;;;25.60;99.90;;;;;;7281626;19;20656;-82
2023/07/14 07:24:59;;;;;;;5.90;2.40;;;26.00;99.90;;;;;;7281058;19;20272;-81
2023/07/14 07:27:25;;;;;;;7.32;2.38;;;28.10;99.90;;;;;;7281516;19;20872;-82
2023/07/14 07:29:50;;;;;;;6.50;2.20;;;30.20;99.90;;;;;;7280553;19;20539;-81
2023/07/14 07:32:17;;;;;;;7.05;2.38;;;31.10;99.90;;;;;;7280751;19;20663;-82
2023/07/14 07:34:43;;;;;;;6.20;2.08;;;32.70;97.00;;;;;;7280466;19;20569;-82
2023/07/14 07:37:10;;;;;;;7.53;2.35;;;33.90;93.40;;;;;;7303009;19;20193;-82
2023/07/14 07:39:36;;;;;;;6.20;1.80;;;33.70;89.80;;;;;;7281360;19;20181;-82
2023/07/14 07:42:03;;;;;;;5.88;2.15;;;32.40;90.30;;;;;;7280828;19;20189;-83
2023/07/14 07:44:29;;;;;;;5.07;1.83;;;31.40;93.00;;;;;;7282012;19;20881;-83
2023/07/14 07:46:55;;;;;;;8.32;2.00;;;31.50;91.10;;;;;;7281906;19;20193;-84
2023/07/14 07:49:21;;;;;;;6.57;2.05;;;32.60;90.80;;;;;;7281045;19;20256;-85
2023/07/14 07:51:47;;;;;;;5.97;1.80;;;33.50;87.80;;;;;;7281022;19;20197;-83
2023/07/14 07:54:13;;;;;;;4.75;1.77;;;33.30;86.30;;;;;;7280166;19;20189;-81
2023/07/14 07:56:43;;;;;;;6.13;1.90;;;33.40;86.10;;;;;;7302315;19;20180;-82
2023/07/14 07:59:15;;;;;;;5.72;1.92;;;32.50;86.00;;;;;;7281013;19;20283;-81
2023/07/14 08:01:43;;;;;;;5.65;1.90;;;31.30;87.70;;;;;;7259268;19;20672;-82
2023/07/14 08:04:09;;;;;;;5.85;1.70;;;30.40;89.90;;;;;;7301490;19;20197;-81
2023/07/14 08:06:39;;;;;;;8.27;2.00;;;30.50;91.20;;;;;;7280574;19;20285;-83
2023/07/14 08:09:06;;;;;;;6.28;2.15;;;28.80;92.20;;;;;;7281277;19;20640;-82
2023/07/14 08:11:33;;;;;;;5.60;2.10;;;29.20;93.70;;;;;;7279379;19;20280;-83
2023/07/14 08:14:01;;;;;;;8.73;1.80;;;31.10;92.30;;;;;;7283602;19;20195;-83
2023/07/14 08:16:27;;;;;;;6.85;2.13;;;32.20;90.90;;;;;;7285172;19;20200;-82
2023/07/14 08:18:53;;;;;;;7.68;1.85;;;31.60;90.00;;;;;;7286077;19;20256;-82
2023/07/14 08:21:19;;;;;;;6.35;2.00;;;31.70;87.60;;;;;;7283219;19;20285;-83
2023/07/14 08:23:45;;;;;;;5.85;1.77;;;31.60;89.30;;;;;;7287236;19;20193;-83
2023/07/14 08:26:12;;;;;;;6.90;1.98;;;32.10;89.20;;;;;;7284493;19;20186;-81
2023/07/14 08:28:39;;;;;;;5.40;1.90;;;32.10;89.10;;;;;;7307757;19;20556;-82
2023/07/14 08:31:08;;;;;;;7.40;2.35;;;31.40;88.80;;;;;;7285996;19;20193;-82
2023/07/14 08:33:35;;;;;;;5.72;1.80;;;30.40;90.60;;;;;;7285508;19;20556;-83
2023/07/14 08:36:02;;;;;;;5.35;1.88;;;31.30;90.50;;;;;;7285987;19;20250;-83
2023/07/14 08:38:30;;;;;;;7.43;1.95;;;32.30;90.20;;;;;;7285319;19;20193;-83
2023/07/14 08:40:59;;;;;;;6.10;2.00;;;33.50;88.60;;;;;;7284675;19;20561;-82
2023/07/14 08:43:34;;;;;;;5.22;2.10;;;33.30;84.50;;;;;;7286204;19;20648;-83
2023/07/14 08:46:07;;;;;;;4.63;1.83;;;33.10;84.40;;;;;;7285234;19;20205;-82
2023/07/14 08:48:38;;;;;;;5.15;1.80;;;33.10;85.50;;;;;;7286146;19;20639;-81
2023/07/14 08:51:18;;;;;;;7.30;2.03;;;34.40;81.50;;;;;;7285794;19;20197;-82
2023/07/14 08:54:00;;;;;;;6.25;2.10;;;33.90;82.30;;;;;;7263676;19;20199;-82
2023/07/14 08:56:28;;;;;;;6.45;1.95;;;32.70;82.00;;;;;;7284901;19;20207;-82
2023/07/14 08:58:53;;;;;;;4.38;1.60;;;32.40;84.60;;;;;;7285236;19;20644;-80
2023/07/14 09:01:40;;;;;;;6.07;2.05;;;34.30;83.20;;;;;;7285065;19;20203;-83
2023/07/14 09:04:14;;;;;;;7.28;1.95;;;35.50;81.80;;;;;;7285401;19;20642;-83
2023/07/14 09:06:40;;;;;;;4.97;1.70;;;34.90;77.70;;;;;;7274022;19;20192;-80
2023/07/14 09:09:32;;;;;;;6.10;1.95;;;33.80;76.80;;;;;;7306411;19;20185;-80
2023/07/14 09:12:16;;;;;;;6.38;1.80;;;33.10;80.30;;;;;;7179871;19;2005034;-81
2023/07/14 09:15:00;;;;;;;5.80;1.90;;;32.70;80.70;;;;;;7262827;19;20570;-80
2023/07/14 09:17:37;;;;;;;3.95;1.63;;;32.60;81.40;;;;;;7283513;19;20189;-79
2023/07/14 09:20:39;;;;;;;5.70;1.70;;;32.40;79.90;;;;;;7284266;19;20188;-81
2023/07/14 09:23:14;;;;;;;7.22;1.90;;;31.40;80.00;;;;;;7182199;19;2005521;-80
2023/07/14 09:25:53;;;;;;;6.15;1.90;;;30.30;84.80;;;;;;7269357;19;20197;-79
2023/07/14 09:28:28;;;;;;;5.32;2.00;;;30.10;86.40;;;;;;7283190;19;20221;-79
2023/07/14 09:30:55;;;;;;;6.13;1.73;;;30.20;86.80;;;;;;7283392;19;20184;-81
2023/07/14 09:33:22;;;;;;;4.50;1.90;;;29.90;86.80;;;;;;7283104;19;20181;-80
2023/07/14 09:35:49;;;;;;;6.63;2.00;;;29.40;89.00;;;;;;7284427;19;20583;-80
2023/07/14 09:38:57;;;;;;;5.18;1.65;;;29.20;90.40;;;;;;7283933;19;20191;-80
2023/07/14 09:41:28;;;;;;;4.47;1.83;;;29.90;91.80;;;;;;7179546;19;2004692;-80
2023/07/14 09:43:58;;;;;;;5.50;1.60;;;30.20;88.00;;;;;;7282659;19;20185;-80
2023/07/14 09:46:25;;;;;;;6.20;2.00;;;30.30;88.60;;;;;;7282136;19;20728;-76
2023/07/14 09:49:04;;;;;;;3.97;1.58;;;29.90;87.80;;;;;;7281432;19;20252;-76
2023/07/14 09:51:30;;;;;;;3.50;1.63;;;29.60;89.30;;;;;;7283010;19;20198;-76
2023/07/14 09:54:01;;;;;;;8.00;1.90;;;29.90;88.50;;;;;;7279401;19;20192;-77
2023/07/14 09:56:37;;;;;;;2.88;1.65;;;30.00;88.60;;;;;;7283903;19;20189;-81
2023/07/14 09:59:05;;;;;;;3.85;1.58;;;29.80;88.70;;;;;;7283777;19;20608;-80
2023/07/14 10:01:32;;;;;;;7.43;1.95;;;29.80;90.00;;;;;;7281756;19;20185;-81
2023/07/14 10:04:13;;;;;;;6.07;2.10;;;30.00;87.80;;;;;;7281584;19;20341;-76
2023/07/14 10:06:38;;;;;;;3.70;1.80;;;29.60;88.10;;;;;;7282296;19;20195;-76
2023/07/14 10:09:16;;;;;;;8.75;2.20;;;29.20;89.50;;;;;;7283186;19;20193;-80
2023/07/14 10:11:43;;;;;;;6.28;1.90;;;28.90;90.60;;;;;;7259592;19;20184;-75
2023/07/14 10:14:40;;;;;;;4.85;1.77;;;28.20;91.10;;;;;;7302743;19;20188;-79
2023/07/14 10:17:25;;;;;;;5.68;1.80;;;27.50;92.40;;;;;;7180201;19;2004562;-77
2023/07/14 10:19:51;;;;;;;8.48;2.08;;;27.60;92.40;;;;;;7180712;19;2005060;-79
2023/07/14 10:22:24;;;;;;;6.47;2.00;;;27.50;92.90;;;;;;7282179;19;20185;-76
2023/07/14 10:24:57;;;;;;;5.35;1.83;;;27.60;93.10;;;;;;7281343;19;20204;-79
2023/07/14 10:27:28;;;;;;;5.07;2.28;;;27.70;93.60;;;;;;7281809;19;20562;-74
2023/07/14 10:30:14;;;;;;;7.53;2.00;;;27.70;92.10;;;;;;7280065;19;20649;-75
2023/07/14 10:32:47;;;;;;;7.20;2.08;;;27.70;91.60;;;;;;7273117;19;20555;-75
2023/07/14 10:35:19;;;;;;;5.90;2.05;;;28.80;90.90;;;;;;7281925;19;20181;-76
2023/07/14 10:38:04;;;;;;;6.25;1.90;;;29.70;90.00;;;;;;7281379;19;20188;-76
2023/07/14 10:40:37;;;;;;;4.68;1.83;;;31.00;86.20;;;;;;7285962;19;20210;-79
2023/07/14 10:43:18;;;;;;;6.43;1.90;;;32.00;83.70;;;;;;7282955;19;20201;-78
2023/07/14 10:45:52;;;;;;;6.55;1.80;;;31.90;82.20;;;;;;7261133;19;20192;-78
2023/07/14 10:48:40;;;;;;;5.45;2.03;;;32.60;81.90;;;;;;7282399;19;20213;-75
2023/07/14 10:51:29;;;;;;;5.10;1.52;;;33.00;79.20;;;;;;7282052;19;20284;-78
2023/07/14 10:54:17;;;;;;;5.30;1.80;;;32.90;77.20;;;;;;7179354;19;2004633;-79
2023/07/14 10:57:08;;;;;;;6.60;1.98;;;33.80;76.00;;;;;;7260886;19;20213;-79
2023/07/14 10:59:44;;;;;;;4.18;1.77;;;32.60;74.90;;;;;;7282801;19;20214;-79
2023/07/14 11:02:10;;;;;;;3.80;1.90;;;32.60;78.00;;;;;;7273105;19;20301;-74
2023/07/14 11:04:45;;;;;;;4.30;1.75;;;33.60;73.70;;;;;;7296954;19;20310;-74
2023/07/14 11:07:23;;;;;;;5.00;1.63;;;32.60;75.90;;;;;;7257405;19;20200;-74
2023/07/14 11:09:49;;;;;;;5.72;2.10;;;32.80;74.60;;;;;;7280082;19;20202;-75
2023/07/14 11:12:34;;;;;;;6.43;1.88;;;32.70;73.40;;;;;;7279689;19;20188;-78
2023/07/14 11:15:04;;;;;;;4.22;1.65;;;31.80;74.40;;;;;;7280662;19;20198;-78
2023/07/14 11:17:41;;;;;;;6.70;1.77;;;30.40;75.90;;;;;;7280608;19;20621;-75
2023/07/14 11:20:31;;;;;;;5.40;1.90;;;30.30;78.60;;;;;;7280396;19;20184;-75
2023/07/14 11:23:23;;;;;;;5.32;2.03;;;31.60;78.20;;;;;;7176949;19;2004698;-75
2023/07/14 11:26:08;;;;;;;6.53;1.98;;;31.90;74.60;;;;;;7177837;19;2004666;-78
2023/07/14 11:28:46;;;;;;;4.63;2.00;;;31.60;76.60;;;;;;7279356;19;20640;-78
2023/07/14 11:31:26;;;;;;;7.15;2.92;;;32.70;76.60;;;;;;7258748;19;20279;-76
2023/07/14 11:34:29;;;;;;;7.75;2.38;;;33.80;74.30;;;;;;7279697;19;20185;-79
2023/07/14 11:37:04;;;;;;;7.95;2.53;;;33.90;73.40;;;;;;7176858;19;2006301;-77
2023/07/14 11:39:38;;;;;;;8.05;2.30;;;32.70;71.60;;;;;;7281128;19;20213;-78
2023/07/14 11:42:14;;;;;;;5.65;2.20;;;32.80;70.20;;;;;;7280681;19;20207;-75
2023/07/14 11:44:40;;;;;;;5.88;2.38;;;31.10;70.40;;;;;;7279647;19;20311;-74
2023/07/14 11:47:15;;;;;;;9.30;2.65;;;30.40;74.10;;;;;;7279225;19;20194;-78
2023/07/14 11:49:44;;;;;;;7.55;2.63;;;30.40;77.00;;;;;;7403846;19;20716;-74
2023/07/14 11:52:24;;;;;;;7.00;2.65;;;30.20;76.00;;;;;;7350926;19;20202;-75
2023/07/14 11:54:53;;;;;;;8.25;2.83;;;29.80;77.00;;;;;;7285108;19;20191;-74
2023/07/14 11:57:19;;;;;;;7.55;2.50;;;30.80;78.80;;;;;;7284779;19;20188;-74
2023/07/14 12:00:23;;;;;;;7.28;2.60;;;31.50;75.90;;;;;;7286400;19;20177;-74
2023/07/14 12:02:56;;;;;;;9.45;2.90;;;31.50;74.60;;;;;;7181318;19;2004473;-74
2023/07/14 12:05:32;;;;;;;7.90;2.63;;;31.10;74.40;;;;;;7286078;19;20189;-75
2023/07/14 12:08:10;;;;;;;6.65;2.38;;;30.30;75.20;;;;;;7285071;19;20196;-74
2023/07/14 12:10:39;;;;;;;8.05;2.53;;;30.80;75.80;;;;;;7285533;19;20207;-74
2023/07/14 12:13:24;;;;;;;8.75;3.20;;;31.60;77.50;;;;;;7285705;19;20201;-74
2023/07/14 12:15:56;;;;;;;12.85;3.50;;;31.60;74.90;;;;;;7181626;19;2005051;-77
2023/07/14 12:18:34;;;;;;;8.93;2.70;;;31.80;76.00;;;;;;7286748;19;20192;-78
2023/07/14 12:21:15;;;;;;;7.90;2.70;;;31.30;74.40;;;;;;7286355;19;20206;-79
2023/07/14 12:23:42;;;;;;;8.05;2.90;;;30.80;74.80;;;;;;7268568;19;20268;-77
2023/07/14 12:26:12;;;;;;;11.93;3.22;;;30.40;75.30;;;;;;7307681;19;20682;-78
2023/07/14 12:28:38;;;;;;;4.53;2.08;;;30.00;75.80;;;;;;7286052;19;20277;-78
2023/07/14 12:31:16;;;;;;;5.82;2.63;;;29.50;76.40;;;;;;7286081;19;20215;-79
2023/07/14 12:33:43;;;;;;;5.65;2.30;;;29.10;77.10;;;;;;7263893;19;20566;-77
2023/07/14 12:36:18;;;;;;;6.53;2.33;;;28.80;78.10;;;;;;7306590;19;20581;-78
2023/07/14 12:38:51;;;;;;;6.50;2.35;;;28.70;78.00;;;;;;7264509;19;20206;-78
2023/07/14 12:41:18;;;;;;;6.68;2.60;;;28.20;79.50;;;;;;7284467;19;20189;-78
2023/07/14 12:43:50;;;;;;;9.13;2.63;;;28.30;80.80;;;;;;7285659;19;20189;-80
2023/07/14 12:46:27;;;;;;;6.70;2.40;;;28.40;80.90;;;;;;7285919;19;21101;-77
2023/07/14 12:49:04;;;;;;;7.07;2.55;;;28.30;81.10;;;;;;7286775;19;20188;-79
2023/07/14 12:51:35;;;;;;;6.90;2.60;;;28.60;82.00;;;;;;7288903;19;20261;-75
2023/07/14 12:54:06;;;;;;;8.68;2.45;;;28.80;80.80;;;;;;7287075;19;20279;-74
2023/07/14 12:56:33;;;;;;;8.95;3.05;;;28.90;82.10;;;;;;7285310;19;20191;-74
2023/07/14 12:59:00;;;;;;;7.07;2.90;;;29.00;79.50;;;;;;7282998;19;20185;-74
2023/07/14 13:01:26;;;;;;;8.07;2.97;;;28.90;78.30;;;;;;7283559;19;20189;-75